Time;durP1;ratioP1;P1;durP2;ratioP2;P2;SDS_P1;SDS_P2;PMS_P1;PMS_P2;Temp;Humidity;BMP_temperature;BMP_pressure;BME280_temperature;BME280_humidity;BME280_pressure;Samples;Min_cycle;Max_cycle;Signal;HPM_P1;HPM_P2
2023/05/28 00:00:26;;;;;;;2.73;1.87;;;14.50;95.60;;;;;;5094592;28;20424;-88
2023/05/28 00:02:53;;;;;;;2.40;2.20;;;14.50;95.70;;;;;;5094575;28;20533;-88
2023/05/28 00:05:20;;;;;;;7.50;2.27;;;14.50;96.20;;;;;;5095670;28;20443;-88
2023/05/28 00:07:46;;;;;;;3.00;2.10;;;14.50;96.90;;;;;;5094960;28;20447;-88
2023/05/28 00:10:13;;;;;;;3.80;2.33;;;14.40;97.00;;;;;;5095271;28;20443;-87
2023/05/28 00:12:40;;;;;;;4.70;1.90;;;14.40;97.30;;;;;;5095076;28;20781;-88
2023/05/28 00:15:09;;;;;;;2.73;1.83;;;14.40;97.30;;;;;;5094555;28;20467;-87
2023/05/28 00:17:36;;;;;;;5.50;1.60;;;14.30;97.60;;;;;;5094843;28;20444;-88
2023/05/28 00:20:06;;;;;;;2.27;1.40;;;14.30;97.80;;;;;;5094031;28;20850;-87
2023/05/28 00:22:32;;;;;;;7.93;2.20;;;14.20;98.20;;;;;;5094411;28;20493;-88
2023/05/28 00:24:59;;;;;;;3.27;1.30;;;14.20;97.90;;;;;;5094232;28;20464;-88
2023/05/28 00:27:26;;;;;;;3.37;2.23;;;14.10;97.90;;;;;;5094643;28;20444;-88
2023/05/28 00:29:53;;;;;;;6.07;1.77;;;14.10;97.80;;;;;;5094353;28;20924;-88
2023/05/28 00:32:21;;;;;;;1.97;1.57;;;14.10;98.20;;;;;;5093892;28;20444;-87
2023/05/28 00:34:47;;;;;;;1.20;1.10;;;14.00;98.70;;;;;;5094225;28;20833;-88
2023/05/28 00:37:14;;;;;;;7.13;1.97;;;14.00;98.50;;;;;;5094329;28;20456;-88
2023/05/28 00:39:41;;;;;;;1.73;1.33;;;14.00;98.90;;;;;;5094238;28;20455;-88
2023/05/28 00:42:10;;;;;;;4.27;1.50;;;13.90;99.00;;;;;;5094135;28;20837;-88
2023/05/28 00:44:38;;;;;;;2.60;1.80;;;13.80;99.00;;;;;;5093997;28;20518;-88
2023/05/28 00:47:05;;;;;;;6.60;2.53;;;13.80;99.00;;;;;;5093763;28;20962;-88
2023/05/28 00:49:34;;;;;;;6.47;1.80;;;13.80;99.20;;;;;;5094169;28;20452;-88
2023/05/28 00:52:02;;;;;;;5.67;1.50;;;13.80;99.10;;;;;;5094037;28;20781;-87
2023/05/28 00:54:30;;;;;;;3.57;1.30;;;13.70;99.90;;;;;;5093778;28;20570;-87
2023/05/28 00:56:58;;;;;;;2.80;1.97;;;13.70;99.90;;;;;;5094028;28;20447;-87
2023/05/28 00:59:26;;;;;;;1.53;1.40;;;13.70;99.90;;;;;;5094116;28;20808;-88
2023/05/28 01:01:52;;;;;;;5.03;1.93;;;13.70;99.90;;;;;;5093951;28;20490;-88
2023/05/28 01:04:21;;;;;;;3.17;1.80;;;13.70;99.90;;;;;;5093986;28;20455;-88
2023/05/28 01:06:50;;;;;;;2.67;1.87;;;13.60;99.90;;;;;;5094038;28;20509;-87
2023/05/28 01:09:17;;;;;;;1.60;1.40;;;13.50;99.90;;;;;;5093543;28;20448;-88
2023/05/28 01:11:49;;;;;;;3.40;2.03;;;13.50;99.90;;;;;;5095460;28;20869;-87
2023/05/28 01:14:16;;;;;;;1.80;1.23;;;13.50;99.90;;;;;;5094124;28;20459;-87
2023/05/28 01:16:44;;;;;;;2.40;1.70;;;13.40;99.90;;;;;;5093740;28;20439;-87
2023/05/28 01:19:16;;;;;;;3.37;1.73;;;13.40;99.90;;;;;;5093837;28;20810;-87
2023/05/28 01:21:46;;;;;;;3.70;1.80;;;13.30;99.90;;;;;;5097699;28;20963;-87
2023/05/28 01:24:15;;;;;;;3.40;1.97;;;13.30;99.90;;;;;;5097759;28;20468;-87
2023/05/28 01:26:43;;;;;;;1.90;1.10;;;13.20;99.90;;;;;;5097262;28;20966;-88
2023/05/28 01:29:19;;;;;;;4.27;1.77;;;13.20;99.90;;;;;;5097989;28;20492;-88
2023/05/28 01:31:46;;;;;;;1.20;1.00;;;13.10;99.90;;;;;;5097394;28;20428;-87
2023/05/28 01:34:13;;;;;;;1.10;0.90;;;13.10;99.90;;;;;;5097306;28;20474;-87
2023/05/28 01:36:47;;;;;;;5.50;1.30;;;13.10;99.90;;;;;;5097361;28;20485;-88
2023/05/28 01:39:19;;;;;;;8.00;1.90;;;13.00;99.90;;;;;;5097468;28;20439;-87
2023/05/28 01:41:47;;;;;;;1.60;1.50;;;13.00;99.90;;;;;;5096967;28;20468;-87
2023/05/28 01:44:14;;;;;;;2.00;1.80;;;12.90;99.90;;;;;;5097293;28;20832;-87
2023/05/28 01:46:42;;;;;;;5.17;2.07;;;12.90;99.90;;;;;;5097213;28;20444;-87
2023/05/28 01:49:10;;;;;;;1.83;0.83;;;12.90;99.90;;;;;;5097367;28;20453;-87
2023/05/28 01:51:38;;;;;;;4.00;2.40;;;12.80;99.90;;;;;;5097133;28;20449;-88
2023/05/28 01:54:05;;;;;;;1.67;1.30;;;12.80;99.90;;;;;;5097044;28;20467;-87
2023/05/28 01:56:33;;;;;;;3.60;1.50;;;12.80;99.90;;;;;;5096921;28;20452;-88
2023/05/28 01:59:00;;;;;;;3.03;2.20;;;12.80;99.90;;;;;;5096801;28;20814;-88
2023/05/28 02:01:29;;;;;;;5.17;1.40;;;12.70;99.90;;;;;;5096576;28;20944;-87
2023/05/28 02:03:56;;;;;;;1.70;1.60;;;12.70;99.90;;;;;;5096692;28;20466;-87
2023/05/28 02:06:23;;;;;;;3.27;2.10;;;12.80;99.90;;;;;;5096920;28;20452;-88
2023/05/28 02:08:49;;;;;;;5.40;1.80;;;12.70;99.90;;;;;;5096762;28;20448;-87
2023/05/28 02:11:16;;;;;;;7.47;2.10;;;12.70;99.90;;;;;;5096849;28;20428;-88
2023/05/28 02:13:44;;;;;;;1.63;1.37;;;12.60;99.90;;;;;;5097086;28;20448;-87
2023/05/28 02:16:11;;;;;;;2.50;2.03;;;12.70;99.90;;;;;;5096546;28;20448;-87
2023/05/28 02:18:39;;;;;;;9.73;2.40;;;12.70;99.90;;;;;;5096137;28;20448;-87
2023/05/28 02:21:06;;;;;;;4.10;1.83;;;12.70;99.90;;;;;;5096107;28;20488;-87
2023/05/28 02:23:33;;;;;;;5.37;2.63;;;12.70;99.90;;;;;;5096220;28;20476;-87
2023/05/28 02:26:00;;;;;;;2.67;2.40;;;12.70;99.90;;;;;;5096395;28;20854;-87
2023/05/28 02:28:27;;;;;;;4.00;1.90;;;12.60;99.90;;;;;;5096426;28;20444;-87
2023/05/28 02:30:55;;;;;;;13.17;2.80;;;12.60;99.90;;;;;;5095899;28;20444;-87
2023/05/28 02:33:22;;;;;;;3.50;2.00;;;12.60;99.90;;;;;;5096197;28;20436;-87
2023/05/28 02:35:49;;;;;;;5.43;2.17;;;12.60;99.90;;;;;;5096076;28;20509;-88
2023/05/28 02:38:16;;;;;;;5.53;1.77;;;12.60;99.90;;;;;;5096160;28;20863;-87
2023/05/28 02:40:43;;;;;;;3.17;1.90;;;12.60;99.90;;;;;;5096269;28;20444;-87
2023/05/28 02:43:10;;;;;;;2.37;2.20;;;12.50;99.90;;;;;;5096071;28;20479;-87
2023/05/28 02:45:36;;;;;;;3.17;2.87;;;12.50;99.90;;;;;;5095992;28;20468;-87
2023/05/28 02:48:05;;;;;;;4.80;2.23;;;12.40;99.90;;;;;;5095978;28;20432;-87
2023/05/28 02:50:32;;;;;;;6.20;2.53;;;12.50;99.90;;;;;;5095970;28;20452;-87
2023/05/28 02:52:59;;;;;;;4.57;2.10;;;12.40;99.90;;;;;;5095887;28;20436;-87
2023/05/28 02:55:25;;;;;;;4.60;2.70;;;12.40;99.90;;;;;;5095357;28;20498;-87
2023/05/28 02:57:53;;;;;;;6.60;1.97;;;12.40;99.90;;;;;;5095849;28;20455;-87
2023/05/28 03:00:21;;;;;;;5.87;2.30;;;12.30;99.90;;;;;;5095829;28;20452;-87
2023/05/28 03:02:48;;;;;;;1.93;1.60;;;12.30;99.90;;;;;;5095634;28;20570;-87
2023/05/28 03:05:16;;;;;;;3.10;1.50;;;12.20;99.90;;;;;;5095368;28;20471;-87
2023/05/28 03:07:43;;;;;;;2.27;1.80;;;12.20;99.90;;;;;;5095722;28;20448;-86
2023/05/28 03:10:10;;;;;;;3.50;2.00;;;12.10;99.90;;;;;;5095916;28;20455;-86
2023/05/28 03:12:37;;;;;;;8.53;2.30;;;12.10;99.90;;;;;;5095638;28;20447;-87
2023/05/28 03:15:04;;;;;;;3.33;1.30;;;12.10;99.90;;;;;;5095226;28;21020;-87
2023/05/28 03:17:31;;;;;;;1.80;1.70;;;12.00;99.90;;;;;;5095430;28;20505;-87
2023/05/28 03:19:57;;;;;;;3.90;1.10;;;12.00;99.90;;;;;;5095491;28;20480;-87
2023/05/28 03:22:26;;;;;;;3.73;1.93;;;12.00;99.90;;;;;;5095599;28;20484;-87
2023/05/28 03:24:52;;;;;;;3.00;1.60;;;11.90;99.90;;;;;;5095439;28;20562;-87
2023/05/28 03:27:19;;;;;;;2.80;1.33;;;12.00;99.90;;;;;;5095078;28;20475;-87
2023/05/28 03:29:46;;;;;;;5.00;1.77;;;12.00;99.90;;;;;;5095172;28;20448;-87
2023/05/28 03:32:13;;;;;;;2.60;1.30;;;11.90;99.90;;;;;;5095193;28;20451;-88
2023/05/28 03:34:39;;;;;;;4.63;2.20;;;11.90;99.90;;;;;;5095047;28;20467;-87
2023/05/28 03:37:06;;;;;;;5.20;2.10;;;11.90;99.90;;;;;;5095353;28;20457;-87
2023/05/28 03:39:34;;;;;;;6.27;1.60;;;11.90;99.90;;;;;;5095231;28;20458;-87
2023/05/28 03:42:01;;;;;;;3.90;1.70;;;11.90;99.90;;;;;;5094036;28;20847;-87
2023/05/28 03:44:28;;;;;;;1.60;1.50;;;11.90;99.90;;;;;;5094862;28;20460;-87
2023/05/28 03:46:55;;;;;;;2.00;1.80;;;11.90;99.90;;;;;;5094871;28;20444;-87
2023/05/28 03:49:22;;;;;;;6.00;2.00;;;11.90;99.90;;;;;;5094863;28;20457;-87
2023/05/28 03:51:48;;;;;;;4.00;1.27;;;12.00;99.90;;;;;;5094813;28;20451;-87
2023/05/28 03:54:15;;;;;;;2.10;1.87;;;11.90;99.90;;;;;;5094614;28;20850;-87
2023/05/28 03:56:43;;;;;;;2.50;1.93;;;12.00;99.90;;;;;;5094449;28;20915;-87
2023/05/28 03:59:10;;;;;;;3.30;1.67;;;12.00;99.90;;;;;;5094752;28;20927;-87
2023/05/28 04:01:37;;;;;;;3.57;1.80;;;12.00;99.90;;;;;;5094664;28;20462;-87
2023/05/28 04:04:04;;;;;;;2.93;1.63;;;12.10;99.90;;;;;;5094366;28;20850;-87
2023/05/28 04:06:32;;;;;;;1.63;1.53;;;12.10;99.90;;;;;;5094301;28;20966;-88
2023/05/28 04:08:59;;;;;;;1.57;1.37;;;12.20;99.90;;;;;;5094386;28;21012;-87
2023/05/28 04:11:28;;;;;;;2.20;1.47;;;12.20;99.90;;;;;;5094439;28;20518;-87
2023/05/28 04:13:57;;;;;;;2.80;1.47;;;12.30;99.90;;;;;;5094442;28;20451;-87
2023/05/28 04:16:24;;;;;;;2.93;1.20;;;12.30;99.90;;;;;;5094180;28;20447;-87
2023/05/28 04:18:51;;;;;;;1.60;1.23;;;12.30;99.90;;;;;;5094331;28;20531;-87
2023/05/28 04:21:18;;;;;;;2.27;1.40;;;12.40;99.90;;;;;;5094039;28;20483;-88
2023/05/28 04:23:45;;;;;;;3.30;2.10;;;12.40;99.90;;;;;;5096225;28;20510;-87
2023/05/28 04:26:12;;;;;;;2.30;1.40;;;12.40;99.90;;;;;;5095432;28;20436;-87
2023/05/28 04:28:40;;;;;;;3.00;1.53;;;12.50;99.90;;;;;;5095850;28;20495;-87
2023/05/28 04:31:08;;;;;;;1.80;1.17;;;12.60;99.90;;;;;;5095409;28;20987;-87
2023/05/28 04:33:36;;;;;;;2.03;1.10;;;12.70;99.90;;;;;;5095649;28;20947;-87
2023/05/28 04:36:03;;;;;;;2.57;1.70;;;12.70;99.90;;;;;;5095579;28;20881;-87
2023/05/28 04:38:31;;;;;;;2.27;1.10;;;12.80;99.90;;;;;;5095560;28;20444;-87
2023/05/28 04:40:59;;;;;;;2.03;1.50;;;12.80;99.90;;;;;;5095081;28;20471;-88
2023/05/28 04:43:29;;;;;;;6.90;1.63;;;12.80;99.90;;;;;;5095592;28;20487;-88
2023/05/28 04:45:58;;;;;;;3.33;1.20;;;12.90;99.90;;;;;;5095403;28;20472;-88
2023/05/28 04:48:26;;;;;;;2.50;1.50;;;12.90;99.90;;;;;;5095539;28;20526;-88
2023/05/28 04:50:53;;;;;;;2.10;1.90;;;13.00;99.90;;;;;;5094931;28;20439;-88
2023/05/28 04:53:21;;;;;;;2.20;2.07;;;13.00;99.90;;;;;;5095667;28;20520;-88
2023/05/28 04:55:48;;;;;;;2.30;1.20;;;13.00;99.90;;;;;;5099523;28;20464;-89
2023/05/28 04:58:15;;;;;;;2.63;1.60;;;13.00;99.90;;;;;;5099270;28;20463;-88
2023/05/28 05:00:42;;;;;;;2.53;1.73;;;13.10;99.90;;;;;;5099889;28;20448;-89
2023/05/28 05:03:09;;;;;;;3.83;1.30;;;13.10;99.90;;;;;;5099041;28;20475;-88
2023/05/28 05:05:39;;;;;;;1.90;1.60;;;13.20;99.90;;;;;;5098950;28;20974;-89
2023/05/28 05:08:06;;;;;;;4.50;2.07;;;13.30;99.90;;;;;;5099031;28;20439;-88
2023/05/28 05:10:33;;;;;;;4.43;1.77;;;13.50;99.90;;;;;;5099587;28;20452;-88
2023/05/28 05:13:00;;;;;;;5.33;1.83;;;13.40;99.90;;;;;;5101507;28;20454;-88
2023/05/28 05:15:27;;;;;;;3.97;2.30;;;13.50;99.90;;;;;;5099873;28;20472;-88
2023/05/28 05:17:53;;;;;;;2.73;1.90;;;13.60;99.90;;;;;;5102863;28;20455;-88
2023/05/28 05:20:21;;;;;;;5.03;1.53;;;13.60;99.90;;;;;;5101414;28;21063;-89
2023/05/28 05:22:50;;;;;;;1.10;1.10;;;13.70;99.90;;;;;;5099153;28;20478;-89
2023/05/28 05:25:16;;;;;;;1.70;1.47;;;13.80;99.90;;;;;;5098967;28;20484;-89
2023/05/28 05:27:43;;;;;;;3.83;2.20;;;13.80;99.90;;;;;;5098324;28;20436;-89
2023/05/28 05:30:11;;;;;;;1.87;1.10;;;13.90;99.90;;;;;;5098399;28;20444;-88
2023/05/28 05:32:38;;;;;;;2.10;1.60;;;14.00;99.90;;;;;;5099433;28;20451;-88
2023/05/28 05:35:06;;;;;;;8.57;2.10;;;14.10;99.90;;;;;;5100239;28;20538;-88
2023/05/28 05:37:33;;;;;;;7.80;2.50;;;14.20;99.90;;;;;;5098754;28;20456;-89
2023/05/28 05:40:01;;;;;;;4.33;1.73;;;14.20;99.90;;;;;;5098623;28;20455;-89
2023/05/28 05:42:27;;;;;;;8.50;1.93;;;14.30;99.90;;;;;;5099332;28;20446;-89
2023/05/28 05:44:54;;;;;;;8.80;2.37;;;14.50;99.90;;;;;;5098825;28;20462;-89
2023/05/28 05:47:21;;;;;;;4.40;2.10;;;14.50;99.90;;;;;;5099149;28;20448;-89
2023/05/28 05:49:48;;;;;;;3.37;1.87;;;14.60;99.90;;;;;;5098796;28;20435;-89
2023/05/28 05:52:15;;;;;;;1.90;1.27;;;14.70;99.90;;;;;;5101209;28;20448;-89
2023/05/28 05:54:41;;;;;;;7.97;1.97;;;14.90;99.90;;;;;;5100850;28;20823;-89
2023/05/28 05:57:10;;;;;;;5.10;2.13;;;15.00;99.90;;;;;;5101242;28;20542;-89
2023/05/28 05:59:36;;;;;;;3.83;2.20;;;15.20;99.90;;;;;;5101180;28;20463;-89
2023/05/28 06:02:03;;;;;;;2.03;1.83;;;15.40;99.90;;;;;;5101126;28;20435;-89
2023/05/28 06:04:31;;;;;;;5.10;1.70;;;15.50;99.90;;;;;;5100976;28;20495;-90
2023/05/28 06:06:58;;;;;;;2.10;1.53;;;15.70;99.90;;;;;;5099903;28;20544;-89
2023/05/28 06:09:25;;;;;;;2.67;1.77;;;15.90;99.90;;;;;;5100487;28;20439;-89
2023/05/28 06:11:52;;;;;;;3.93;1.80;;;16.10;99.90;;;;;;5102417;28;20493;-89
2023/05/28 06:14:21;;;;;;;2.23;1.73;;;16.30;99.90;;;;;;5101717;28;20478;-90
2023/05/28 06:16:48;;;;;;;3.40;1.90;;;16.40;99.90;;;;;;5102001;28;20436;-90
2023/05/28 06:19:15;;;;;;;2.00;1.80;;;16.60;99.90;;;;;;5101326;28;20432;-89
2023/05/28 06:21:42;;;;;;;2.73;1.93;;;16.80;99.90;;;;;;5100817;28;20780;-89
2023/05/28 06:24:09;;;;;;;3.97;2.13;;;17.10;99.90;;;;;;5099492;28;20495;-88
2023/05/28 06:26:36;;;;;;;5.50;1.63;;;17.30;99.90;;;;;;5101203;28;20448;-89
2023/05/28 06:29:02;;;;;;;2.50;1.70;;;17.50;99.90;;;;;;5101416;28;20475;-90
2023/05/28 06:31:30;;;;;;;2.53;1.87;;;17.90;99.90;;;;;;5100423;28;20469;-90
2023/05/28 06:33:57;;;;;;;4.20;1.80;;;18.20;99.90;;;;;;5100835;28;20436;-90
2023/05/28 06:36:24;;;;;;;3.43;1.57;;;18.40;99.90;;;;;;5101189;28;20432;-90
2023/05/28 06:38:51;;;;;;;6.53;1.57;;;18.70;99.90;;;;;;5098616;28;20444;-90
2023/05/28 06:41:18;;;;;;;2.93;1.43;;;19.00;99.90;;;;;;5097876;28;20950;-90
2023/05/28 06:43:46;;;;;;;3.37;1.90;;;19.10;99.90;;;;;;5099981;28;20486;-89
2023/05/28 06:46:13;;;;;;;3.10;1.37;;;19.30;99.90;;;;;;5097545;28;20466;-90
2023/05/28 06:48:41;;;;;;;2.73;1.60;;;19.60;99.90;;;;;;5098722;28;20435;-90
2023/05/28 06:51:08;;;;;;;4.47;2.27;;;19.70;99.90;;;;;;5100869;28;20881;-90
2023/05/28 06:53:35;;;;;;;2.30;1.70;;;19.90;99.90;;;;;;5100262;28;20467;-89
2023/05/28 06:56:02;;;;;;;1.30;1.20;;;20.10;99.90;;;;;;5098248;28;20501;-90
2023/05/28 06:58:28;;;;;;;13.20;1.77;;;20.30;99.90;;;;;;5098600;28;20448;-90
2023/05/28 07:00:55;;;;;;;3.20;1.47;;;20.40;98.40;;;;;;5100886;28;20436;-90
2023/05/28 07:03:22;;;;;;;1.40;1.30;;;20.60;97.40;;;;;;5099935;28;20989;-90
2023/05/28 07:05:50;;;;;;;4.37;1.83;;;20.60;97.10;;;;;;5099787;28;20879;-89
2023/05/28 07:08:17;;;;;;;2.40;1.80;;;20.70;96.40;;;;;;5101973;28;20459;-89
2023/05/28 07:10:44;;;;;;;5.10;1.60;;;20.90;95.50;;;;;;5099539;28;20455;-90
2023/05/28 07:13:10;;;;;;;4.30;1.67;;;21.10;94.80;;;;;;5101713;28;20519;-90
2023/05/28 07:15:37;;;;;;;1.30;1.20;;;21.40;94.70;;;;;;5101088;28;20490;-89
2023/05/28 07:18:04;;;;;;;1.73;1.23;;;21.70;94.00;;;;;;5099943;28;20455;-90
2023/05/28 07:20:31;;;;;;;1.43;1.23;;;21.90;93.70;;;;;;5099211;28;20532;-90
2023/05/28 07:22:59;;;;;;;3.33;1.60;;;22.20;93.30;;;;;;5099690;28;20458;-90
2023/05/28 07:25:26;;;;;;;1.57;1.13;;;22.50;92.30;;;;;;5101094;28;20538;-90
2023/05/28 07:27:53;;;;;;;4.30;1.10;;;22.70;92.70;;;;;;5100004;28;20458;-90
2023/05/28 07:30:19;;;;;;;3.87;1.67;;;23.00;91.20;;;;;;5098869;28;20205;-90
2023/05/28 07:32:46;;;;;;;2.37;1.70;;;23.40;90.60;;;;;;5099548;28;20303;-90
2023/05/28 07:35:13;;;;;;;3.77;2.03;;;23.80;87.90;;;;;;5098999;28;20561;-91
2023/05/28 07:37:40;;;;;;;2.40;1.55;;;24.40;88.70;;;;;;5098617;28;20201;-91
2023/05/28 07:40:10;;;;;;;3.20;1.30;;;25.00;84.30;;;;;;5099078;28;20281;-92
2023/05/28 07:42:37;;;;;;;2.33;1.23;;;25.50;80.50;;;;;;5098131;28;20201;-93
2023/05/28 07:45:04;;;;;;;2.35;1.55;;;26.40;75.00;;;;;;5098201;28;20232;-91
2023/05/28 07:47:31;;;;;;;1.80;1.33;;;27.30;71.10;;;;;;5097105;28;20213;-91
2023/05/28 07:49:58;;;;;;;1.75;1.00;;;28.00;68.40;;;;;;5097559;28;20205;-91
2023/05/28 07:52:25;;;;;;;2.03;1.63;;;28.80;65.60;;;;;;5098752;28;20213;-91
2023/05/28 07:54:52;;;;;;;1.00;0.90;;;30.00;63.20;;;;;;5098622;28;20314;-91
2023/05/28 07:57:20;;;;;;;2.67;1.92;;;31.30;57.50;;;;;;5096754;28;20213;-91
2023/05/28 07:59:47;;;;;;;1.35;1.25;;;32.20;55.30;;;;;;5098813;28;20189;-92
2023/05/28 08:02:14;;;;;;;1.95;1.20;;;32.90;52.50;;;;;;5100677;28;20272;-92
2023/05/28 08:04:41;;;;;;;1.15;1.05;;;33.10;50.40;;;;;;5099190;28;20221;-90
2023/05/28 08:07:09;;;;;;;1.27;1.17;;;32.70;50.70;;;;;;5096407;28;20214;-88
2023/05/28 08:09:36;;;;;;;4.30;1.63;;;32.10;51.10;;;;;;5100583;28;20239;-88
2023/05/28 08:12:03;;;;;;;2.25;1.17;;;31.50;49.80;;;;;;5100355;28;20290;-89
2023/05/28 08:14:32;;;;;;;2.63;1.27;;;30.80;50.80;;;;;;5102407;28;20224;-89
2023/05/28 08:16:58;;;;;;;2.13;1.25;;;30.30;51.60;;;;;;5099490;28;20291;-90
2023/05/28 08:19:26;;;;;;;2.72;1.10;;;29.60;53.30;;;;;;5100744;28;20296;-88
2023/05/28 08:21:53;;;;;;;1.13;1.00;;;29.30;52.80;;;;;;5096542;28;20188;-88
2023/05/28 08:24:20;;;;;;;1.48;1.38;;;28.90;53.90;;;;;;5098021;28;20228;-89
2023/05/28 08:26:47;;;;;;;1.50;1.23;;;28.60;54.50;;;;;;5097166;28;20266;-87
2023/05/28 08:29:14;;;;;;;2.97;1.83;;;28.40;55.60;;;;;;5097201;28;20203;-88
2023/05/28 08:31:42;;;;;;;2.05;1.42;;;28.00;54.80;;;;;;5096306;28;20286;-90
2023/05/28 08:34:09;;;;;;;1.85;1.45;;;28.00;56.80;;;;;;5099629;28;20235;-91
2023/05/28 08:36:37;;;;;;;5.15;1.98;;;28.00;57.50;;;;;;5097342;28;20215;-87
2023/05/28 08:39:04;;;;;;;2.35;1.30;;;28.20;57.50;;;;;;5103135;28;20202;-87
2023/05/28 08:41:31;;;;;;;1.85;1.20;;;28.30;56.50;;;;;;5096346;28;20234;-87
2023/05/28 08:43:58;;;;;;;3.03;1.25;;;28.00;55.70;;;;;;5094423;28;20228;-87
2023/05/28 08:46:25;;;;;;;1.98;1.10;;;27.60;56.10;;;;;;5098972;28;20296;-89
2023/05/28 08:48:54;;;;;;;1.10;1.00;;;27.10;56.80;;;;;;5103446;28;20694;-88
2023/05/28 08:51:24;;;;;;;2.55;1.27;;;26.70;57.20;;;;;;5101923;28;20205;-86
2023/05/28 08:53:52;;;;;;;2.00;1.33;;;26.20;57.10;;;;;;5107311;28;20192;-88
2023/05/28 08:56:20;;;;;;;1.40;1.30;;;26.00;58.50;;;;;;5112642;28;20254;-89
2023/05/28 08:58:47;;;;;;;1.50;1.13;;;26.00;58.80;;;;;;5098789;28;20201;-87
2023/05/28 09:01:15;;;;;;;4.30;1.55;;;25.90;58.80;;;;;;5098450;28;20664;-88
2023/05/28 09:03:42;;;;;;;3.15;1.20;;;26.10;61.00;;;;;;5096958;28;20240;-88
2023/05/28 09:06:10;;;;;;;1.13;0.93;;;26.50;57.30;;;;;;5095847;28;20190;-87
2023/05/28 09:08:37;;;;;;;2.25;1.50;;;26.70;58.10;;;;;;5096724;28;20206;-88
2023/05/28 09:11:10;;;;;;;2.60;1.52;;;26.80;57.10;;;;;;5097302;28;20273;-89
2023/05/28 09:13:41;;;;;;;1.67;1.33;;;26.50;58.10;;;;;;5096157;28;20211;-88
2023/05/28 09:16:08;;;;;;;2.08;1.00;;;26.20;58.00;;;;;;5101615;28;20212;-89
2023/05/28 09:18:36;;;;;;;2.72;1.52;;;25.90;57.50;;;;;;5101981;28;20205;-88
2023/05/28 09:21:10;;;;;;;2.38;1.27;;;25.70;57.60;;;;;;5097608;28;20245;-90
2023/05/28 09:23:39;;;;;;;3.45;1.33;;;25.50;60.50;;;;;;5097757;28;20197;-88
2023/05/28 09:26:09;;;;;;;3.63;1.73;;;25.30;60.20;;;;;;5095671;28;20217;-90
2023/05/28 09:28:36;;;;;;;1.80;1.13;;;25.20;60.50;;;;;;5100706;28;20181;-90
2023/05/28 09:31:04;;;;;;;4.15;1.27;;;25.20;59.90;;;;;;5101164;28;20692;-89
2023/05/28 09:33:31;;;;;;;1.67;1.25;;;25.20;58.70;;;;;;5095848;28;20220;-88
2023/05/28 09:36:02;;;;;;;2.55;1.10;;;25.10;60.00;;;;;;5094330;28;20221;-88
2023/05/28 09:38:40;;;;;;;1.73;1.10;;;25.00;59.50;;;;;;5096672;28;20254;-88
2023/05/28 09:41:19;;;;;;;4.00;1.50;;;25.00;59.30;;;;;;5098133;28;20548;-89
2023/05/28 09:43:45;;;;;;;1.67;1.27;;;25.00;59.00;;;;;;5102539;28;20766;-89
2023/05/28 09:46:12;;;;;;;2.55;1.40;;;24.90;59.20;;;;;;5108951;28;20227;-89
2023/05/28 09:48:39;;;;;;;2.63;1.70;;;24.90;59.60;;;;;;5111597;28;20186;-89
2023/05/28 09:51:11;;;;;;;2.47;1.48;;;24.90;58.50;;;;;;5110202;28;20218;-90
2023/05/28 09:53:44;;;;;;;2.67;1.27;;;24.80;59.00;;;;;;5109580;28;20197;-89
2023/05/28 09:56:12;;;;;;;3.55;1.33;;;24.80;58.10;;;;;;5111251;28;20685;-89
2023/05/28 09:58:45;;;;;;;1.65;1.55;;;24.80;58.10;;;;;;5107119;28;20274;-89
2023/05/28 10:01:16;;;;;;;1.40;1.30;;;24.80;59.70;;;;;;5104453;28;20201;-90
2023/05/28 10:03:45;;;;;;;1.70;0.90;;;24.80;57.70;;;;;;5106754;28;20185;-89
2023/05/28 10:06:17;;;;;;;2.92;1.10;;;24.80;58.80;;;;;;5103018;28;20190;-88
2023/05/28 10:08:49;;;;;;;3.00;1.48;;;24.70;59.40;;;;;;5104675;28;20273;-89
2023/05/28 10:11:18;;;;;;;3.80;1.30;;;24.70;60.60;;;;;;5102364;28;20213;-88
2023/05/28 10:13:45;;;;;;;1.27;1.08;;;24.70;57.70;;;;;;5100792;28;20202;-90
2023/05/28 10:16:13;;;;;;;3.03;2.00;;;24.60;58.50;;;;;;5103944;28;20201;-90
2023/05/28 10:18:42;;;;;;;2.20;1.23;;;24.50;57.90;;;;;;5099950;28;20209;-89
2023/05/28 10:21:11;;;;;;;1.52;1.23;;;24.50;59.30;;;;;;5100201;28;20289;-91
2023/05/28 10:23:38;;;;;;;1.42;1.33;;;24.70;59.10;;;;;;5100788;28;20240;-88
2023/05/28 10:26:07;;;;;;;2.72;1.33;;;24.70;58.80;;;;;;5103706;28;20593;-87
2023/05/28 10:28:34;;;;;;;4.43;0.98;;;24.60;58.20;;;;;;5107642;28;20292;-88
2023/05/28 10:31:04;;;;;;;3.70;1.42;;;24.50;58.20;;;;;;5110867;28;20213;-88
2023/05/28 10:33:31;;;;;;;1.38;1.10;;;24.60;58.70;;;;;;5110533;28;20231;-90
2023/05/28 10:36:01;;;;;;;2.05;1.40;;;24.60;59.20;;;;;;5112510;28;20300;-88
2023/05/28 10:38:29;;;;;;;1.45;1.20;;;24.60;56.00;;;;;;5115347;28;20228;-88
2023/05/28 10:41:03;;;;;;;1.60;1.50;;;24.60;55.20;;;;;;5111714;28;20205;-89
2023/05/28 10:43:47;;;;;;;2.45;1.13;;;24.60;56.80;;;;;;5112071;28;20199;-89
2023/05/28 10:46:19;;;;;;;1.95;1.50;;;24.40;58.50;;;;;;5105096;28;20572;-86
2023/05/28 10:49:12;;;;;;;3.13;1.70;;;24.30;59.10;;;;;;5108112;28;20199;-90
2023/05/28 10:51:44;;;;;;;2.22;1.02;;;24.30;57.90;;;;;;5104879;28;20215;-89
2023/05/28 10:54:16;;;;;;;3.53;1.63;;;24.30;59.30;;;;;;5097710;28;20704;-91
2023/05/28 10:57:07;;;;;;;4.15;1.77;;;24.40;60.30;;;;;;5098282;28;20203;-91
2023/05/28 11:00:00;;;;;;;8.13;1.40;;;24.60;58.60;;;;;;5099944;28;20573;-90
2023/05/28 11:02:29;;;;;;;5.15;1.67;;;24.90;58.30;;;;;;5095997;28;20280;-91
2023/05/28 11:05:01;;;;;;;3.45;1.52;;;25.20;58.30;;;;;;5098311;28;20261;-89
2023/05/28 11:07:31;;;;;;;3.05;1.90;;;25.50;57.60;;;;;;5098603;28;20303;-90
2023/05/28 11:09:58;;;;;;;1.77;1.25;;;25.40;57.40;;;;;;5096564;28;20192;-89
2023/05/28 11:12:27;;;;;;;1.90;1.80;;;25.20;57.80;;;;;;5097552;28;20209;-91
2023/05/28 11:14:55;;;;;;;1.40;1.00;;;24.90;57.60;;;;;;5098599;28;20309;-90
2023/05/28 11:17:23;;;;;;;1.20;1.10;;;24.60;58.50;;;;;;5097406;28;20228;-90
2023/05/28 11:19:53;;;;;;;1.40;1.30;;;24.40;59.80;;;;;;5098382;28;20244;-89
2023/05/28 11:22:21;;;;;;;1.52;1.42;;;24.30;60.30;;;;;;5097477;28;20201;-91
2023/05/28 11:24:58;;;;;;;2.08;1.40;;;24.30;59.90;;;;;;5097343;28;20227;-90
2023/05/28 11:27:26;;;;;;;2.13;1.50;;;24.40;59.30;;;;;;5097884;28;20185;-90
2023/05/28 11:29:55;;;;;;;2.10;1.20;;;24.40;58.80;;;;;;5098162;28;20684;-90
2023/05/28 11:32:23;;;;;;;1.95;1.30;;;24.30;59.60;;;;;;5099748;28;20197;-91
2023/05/28 11:34:52;;;;;;;1.75;1.50;;;24.20;60.60;;;;;;5097898;28;20284;-90
2023/05/28 11:37:25;;;;;;;3.83;1.50;;;24.10;60.90;;;;;;5099251;28;20197;-92
2023/05/28 11:39:55;;;;;;;1.90;1.73;;;24.20;60.80;;;;;;5098144;28;20186;-90
2023/05/28 11:42:22;;;;;;;4.30;1.48;;;24.30;60.00;;;;;;5098295;28;20204;-89
2023/05/28 11:44:50;;;;;;;4.70;1.55;;;24.30;59.60;;;;;;5099846;28;20221;-91
2023/05/28 11:47:18;;;;;;;1.77;1.20;;;24.30;60.00;;;;;;5100611;28;20185;-92
2023/05/28 11:49:47;;;;;;;2.60;1.83;;;24.30;60.50;;;;;;5099882;28;20208;-91
2023/05/28 11:52:14;;;;;;;2.50;1.00;;;24.30;59.80;;;;;;5099075;28;20205;-91
2023/05/28 11:54:41;;;;;;;3.03;1.33;;;24.40;61.70;;;;;;5097471;28;20221;-90
2023/05/28 11:57:08;;;;;;;2.20;1.38;;;24.30;61.60;;;;;;5098535;28;20201;-91
2023/05/28 11:59:36;;;;;;;2.08;1.42;;;24.40;62.80;;;;;;5099031;28;20241;-91
2023/05/28 12:02:13;;;;;;;1.90;1.50;;;24.40;61.50;;;;;;5100102;28;20209;-91
2023/05/28 12:04:40;;;;;;;7.07;1.58;;;24.60;60.60;;;;;;5099124;28;20221;-90
2023/05/28 12:07:08;;;;;;;1.98;1.20;;;24.60;61.10;;;;;;5099629;28;20255;-87
2023/05/28 12:09:36;;;;;;;2.42;1.67;;;24.50;60.30;;;;;;5099970;28;20207;-90
2023/05/28 12:12:04;;;;;;;4.45;1.73;;;24.40;60.70;;;;;;5100326;28;20211;-90
2023/05/28 12:14:32;;;;;;;1.45;1.23;;;24.40;59.80;;;;;;5100848;28;20213;-91
2023/05/28 12:17:05;;;;;;;5.38;2.15;;;24.30;58.10;;;;;;5101591;28;20197;-89
2023/05/28 12:19:33;;;;;;;5.75;1.55;;;24.10;59.10;;;;;;5098345;28;20653;-87
2023/05/28 12:22:00;;;;;;;2.10;1.90;;;23.90;59.80;;;;;;5101261;28;20231;-90
2023/05/28 12:24:30;;;;;;;2.80;1.48;;;23.90;59.60;;;;;;5098080;28;20779;-91
2023/05/28 12:26:57;;;;;;;1.87;1.50;;;23.70;60.90;;;;;;5098808;28;20201;-89
2023/05/28 12:29:23;;;;;;;2.80;1.57;;;23.80;60.30;;;;;;5100454;28;20251;-92
2023/05/28 12:31:58;;;;;;;2.77;1.23;;;23.70;60.40;;;;;;5100129;28;20212;-91
2023/05/28 12:34:25;;;;;;;2.30;1.47;;;23.70;59.30;;;;;;5099471;28;20227;-91
2023/05/28 12:36:54;;;;;;;3.70;1.57;;;23.70;60.00;;;;;;5098634;28;20198;-91
2023/05/28 12:39:21;;;;;;;2.70;1.60;;;23.70;60.30;;;;;;5097590;28;20308;-89
2023/05/28 12:41:49;;;;;;;6.23;1.87;;;23.70;60.20;;;;;;5099295;28;20229;-90
2023/05/28 12:44:16;;;;;;;3.10;1.90;;;23.70;57.70;;;;;;5099821;28;20221;-89
2023/05/28 12:46:44;;;;;;;1.63;1.40;;;23.70;57.70;;;;;;5097049;28;20245;-87
2023/05/28 12:49:11;;;;;;;2.20;1.57;;;23.60;59.00;;;;;;5095697;28;20221;-88
2023/05/28 12:51:38;;;;;;;1.43;1.30;;;23.50;59.30;;;;;;5097448;28;20732;-88